Terminal Aerodrome Forecast
Issued by NWS Sioux Falls, SD

Home | Current Version | Previous Version | Graphics & Text | Print | Product List | Glossary On
Versions: 1 2 3 4 5 6 7 8 9 10 11 12 13 14 15 16 17 18 19 20 21 22 23 24 25 26 27 28
222
FTUS43 KFSD 232320
TAFSUX
TAF
KSUX 232320Z 2400/2424 32017G28KT P6SM SCT060
     FM240100 32014KT P6SM FEW250
     FM240300 32007KT P6SM SKC
     FM241400 29008KT P6SM SKC
     FM241600 29012G20KT P6SM FEW250=

USA.gov is the U.S. government's official web portal to all federal, state and local government web resources and services.